sensor_id;sensor_type;location;lat;lon;timestamp;P1;durP1;ratioP1;P2;durP2;ratioP2
33104;SDS011;19476;51.448;6.674;2023-05-07T00:07:35;4.75;;;2.28;;
33104;SDS011;19476;51.448;6.674;2023-05-07T00:10:04;2.95;;;2.17;;
33104;SDS011;19476;51.448;6.674;2023-05-07T00:18:43;3.70;;;2.13;;
33104;SDS011;19476;51.448;6.674;2023-05-07T00:21:10;4.22;;;2.50;;
33104;SDS011;19476;51.448;6.674;2023-05-07T00:23:36;4.20;;;2.30;;
33104;SDS011;19476;51.448;6.674;2023-05-07T00:26:02;4.28;;;2.47;;
33104;SDS011;19476;51.448;6.674;2023-05-07T00:28:28;4.88;;;2.75;;
33104;SDS011;19476;51.448;6.674;2023-05-07T00:30:54;3.80;;;2.25;;
33104;SDS011;19476;51.448;6.674;2023-05-07T00:33:20;4.38;;;2.42;;
33104;SDS011;19476;51.448;6.674;2023-05-07T00:35:47;4.80;;;2.35;;
33104;SDS011;19476;51.448;6.674;2023-05-07T00:38:13;3.70;;;2.30;;
33104;SDS011;19476;51.448;6.674;2023-05-07T00:40:39;4.55;;;2.35;;
33104;SDS011;19476;51.448;6.674;2023-05-07T00:43:05;5.00;;;2.40;;
33104;SDS011;19476;51.448;6.674;2023-05-07T00:45:32;4.43;;;2.30;;
33104;SDS011;19476;51.448;6.674;2023-05-07T00:48:01;3.33;;;2.30;;
33104;SDS011;19476;51.448;6.674;2023-05-07T00:50:28;4.40;;;2.40;;
33104;SDS011;19476;51.448;6.674;2023-05-07T00:52:55;3.83;;;2.63;;
33104;SDS011;19476;51.448;6.674;2023-05-07T00:55:22;3.97;;;2.50;;
33104;SDS011;19476;51.448;6.674;2023-05-07T00:57:48;4.82;;;2.40;;
33104;SDS011;19476;51.448;6.674;2023-05-07T01:00:16;5.47;;;2.30;;
33104;SDS011;19476;51.448;6.674;2023-05-07T01:02:43;5.38;;;2.55;;
33104;SDS011;19476;51.448;6.674;2023-05-07T01:05:10;3.75;;;2.45;;
33104;SDS011;19476;51.448;6.674;2023-05-07T01:07:39;4.43;;;2.42;;
33104;SDS011;19476;51.448;6.674;2023-05-07T01:10:07;4.80;;;2.65;;
33104;SDS011;19476;51.448;6.674;2023-05-07T01:12:34;4.10;;;2.40;;
33104;SDS011;19476;51.448;6.674;2023-05-07T01:15:02;4.22;;;2.45;;
33104;SDS011;19476;51.448;6.674;2023-05-07T01:17:29;4.95;;;2.50;;
33104;SDS011;19476;51.448;6.674;2023-05-07T01:20:02;4.05;;;2.33;;
33104;SDS011;19476;51.448;6.674;2023-05-07T01:22:32;5.80;;;2.80;;
33104;SDS011;19476;51.448;6.674;2023-05-07T01:24:59;4.45;;;2.70;;
33104;SDS011;19476;51.448;6.674;2023-05-07T01:27:26;5.45;;;2.83;;
33104;SDS011;19476;51.448;6.674;2023-05-07T01:29:52;4.25;;;2.70;;
33104;SDS011;19476;51.448;6.674;2023-05-07T01:32:19;5.03;;;2.70;;
33104;SDS011;19476;51.448;6.674;2023-05-07T01:34:50;4.40;;;2.50;;
33104;SDS011;19476;51.448;6.674;2023-05-07T01:37:18;5.18;;;2.92;;
33104;SDS011;19476;51.448;6.674;2023-05-07T01:39:43;5.15;;;2.60;;
33104;SDS011;19476;51.448;6.674;2023-05-07T01:42:10;5.57;;;3.10;;
33104;SDS011;19476;51.448;6.674;2023-05-07T01:44:35;5.65;;;3.50;;
33104;SDS011;19476;51.448;6.674;2023-05-07T01:47:01;7.85;;;3.72;;
33104;SDS011;19476;51.448;6.674;2023-05-07T01:49:28;6.13;;;3.28;;
33104;SDS011;19476;51.448;6.674;2023-05-07T01:51:53;5.00;;;3.20;;
33104;SDS011;19476;51.448;6.674;2023-05-07T01:54:25;4.47;;;2.90;;
33104;SDS011;19476;51.448;6.674;2023-05-07T01:56:53;5.82;;;3.45;;
33104;SDS011;19476;51.448;6.674;2023-05-07T01:59:19;4.95;;;3.55;;
33104;SDS011;19476;51.448;6.674;2023-05-07T02:01:44;6.35;;;3.33;;
33104;SDS011;19476;51.448;6.674;2023-05-07T02:04:10;4.75;;;3.10;;
33104;SDS011;19476;51.448;6.674;2023-05-07T02:06:36;5.18;;;3.30;;
33104;SDS011;19476;51.448;6.674;2023-05-07T02:09:02;5.57;;;3.38;;
33104;SDS011;19476;51.448;6.674;2023-05-07T02:11:27;6.43;;;3.65;;
33104;SDS011;19476;51.448;6.674;2023-05-07T02:13:53;5.68;;;3.83;;
33104;SDS011;19476;51.448;6.674;2023-05-07T02:16:19;6.70;;;3.70;;
33104;SDS011;19476;51.448;6.674;2023-05-07T02:18:45;5.70;;;3.60;;
33104;SDS011;19476;51.448;6.674;2023-05-07T02:21:10;6.45;;;3.45;;
33104;SDS011;19476;51.448;6.674;2023-05-07T02:23:36;5.43;;;3.50;;
33104;SDS011;19476;51.448;6.674;2023-05-07T02:26:03;5.70;;;3.28;;
33104;SDS011;19476;51.448;6.674;2023-05-07T02:28:28;5.80;;;3.88;;
33104;SDS011;19476;51.448;6.674;2023-05-07T02:30:54;5.65;;;3.60;;
33104;SDS011;19476;51.448;6.674;2023-05-07T02:33:20;6.68;;;3.10;;
33104;SDS011;19476;51.448;6.674;2023-05-07T02:35:46;5.32;;;3.63;;
33104;SDS011;19476;51.448;6.674;2023-05-07T02:38:11;7.03;;;3.80;;
33104;SDS011;19476;51.448;6.674;2023-05-07T02:40:37;5.65;;;3.53;;
33104;SDS011;19476;51.448;6.674;2023-05-07T02:43:08;6.32;;;3.55;;
33104;SDS011;19476;51.448;6.674;2023-05-07T02:45:34;7.45;;;4.00;;
33104;SDS011;19476;51.448;6.674;2023-05-07T02:48:01;4.43;;;3.20;;
33104;SDS011;19476;51.448;6.674;2023-05-07T02:50:26;6.68;;;3.05;;
33104;SDS011;19476;51.448;6.674;2023-05-07T02:52:52;5.18;;;2.97;;
33104;SDS011;19476;51.448;6.674;2023-05-07T02:55:18;5.63;;;3.00;;
33104;SDS011;19476;51.448;6.674;2023-05-07T02:57:44;6.47;;;4.03;;
33104;SDS011;19476;51.448;6.674;2023-05-07T03:00:11;6.20;;;3.70;;
33104;SDS011;19476;51.448;6.674;2023-05-07T03:02:39;6.10;;;3.63;;
33104;SDS011;19476;51.448;6.674;2023-05-07T03:05:05;5.38;;;3.33;;
33104;SDS011;19476;51.448;6.674;2023-05-07T03:07:31;6.13;;;4.00;;
33104;SDS011;19476;51.448;6.674;2023-05-07T03:09:57;5.85;;;3.95;;
33104;SDS011;19476;51.448;6.674;2023-05-07T03:12:23;6.43;;;3.92;;
33104;SDS011;19476;51.448;6.674;2023-05-07T03:14:48;5.85;;;3.58;;
33104;SDS011;19476;51.448;6.674;2023-05-07T03:17:14;5.18;;;3.80;;
33104;SDS011;19476;51.448;6.674;2023-05-07T03:19:41;6.35;;;3.83;;
33104;SDS011;19476;51.448;6.674;2023-05-07T03:22:07;7.45;;;3.50;;
33104;SDS011;19476;51.448;6.674;2023-05-07T03:24:32;5.85;;;3.80;;
33104;SDS011;19476;51.448;6.674;2023-05-07T03:26:58;7.95;;;3.92;;
33104;SDS011;19476;51.448;6.674;2023-05-07T03:29:26;5.43;;;3.58;;
33104;SDS011;19476;51.448;6.674;2023-05-07T03:31:52;6.13;;;4.00;;
33104;SDS011;19476;51.448;6.674;2023-05-07T03:34:17;6.05;;;3.83;;
33104;SDS011;19476;51.448;6.674;2023-05-07T03:36:47;5.13;;;3.60;;
33104;SDS011;19476;51.448;6.674;2023-05-07T03:39:14;6.28;;;3.85;;
33104;SDS011;19476;51.448;6.674;2023-05-07T03:41:39;6.20;;;3.95;;
33104;SDS011;19476;51.448;6.674;2023-05-07T03:44:05;8.02;;;4.10;;
33104;SDS011;19476;51.448;6.674;2023-05-07T03:46:31;6.28;;;3.60;;
33104;SDS011;19476;51.448;6.674;2023-05-07T03:48:58;6.10;;;3.45;;
33104;SDS011;19476;51.448;6.674;2023-05-07T03:51:23;5.93;;;3.90;;
33104;SDS011;19476;51.448;6.674;2023-05-07T03:53:50;6.68;;;4.28;;
33104;SDS011;19476;51.448;6.674;2023-05-07T03:56:18;6.63;;;4.30;;
33104;SDS011;19476;51.448;6.674;2023-05-07T03:58:44;6.03;;;3.88;;
33104;SDS011;19476;51.448;6.674;2023-05-07T04:01:10;5.95;;;3.58;;
33104;SDS011;19476;51.448;6.674;2023-05-07T04:03:37;6.90;;;4.25;;
33104;SDS011;19476;51.448;6.674;2023-05-07T04:06:02;6.57;;;3.80;;
33104;SDS011;19476;51.448;6.674;2023-05-07T04:08:28;5.15;;;3.55;;
33104;SDS011;19476;51.448;6.674;2023-05-07T04:10:56;6.80;;;4.00;;
33104;SDS011;19476;51.448;6.674;2023-05-07T04:13:23;6.50;;;4.03;;
33104;SDS011;19476;51.448;6.674;2023-05-07T04:15:50;6.47;;;3.97;;
33104;SDS011;19476;51.448;6.674;2023-05-07T04:18:16;6.50;;;3.97;;
33104;SDS011;19476;51.448;6.674;2023-05-07T04:20:42;5.95;;;4.10;;
33104;SDS011;19476;51.448;6.674;2023-05-07T04:23:07;6.13;;;4.03;;
33104;SDS011;19476;51.448;6.674;2023-05-07T04:25:34;5.70;;;4.05;;
33104;SDS011;19476;51.448;6.674;2023-05-07T04:27:59;5.85;;;3.80;;
33104;SDS011;19476;51.448;6.674;2023-05-07T04:30:25;6.10;;;3.97;;
33104;SDS011;19476;51.448;6.674;2023-05-07T04:32:51;5.95;;;3.72;;
33104;SDS011;19476;51.448;6.674;2023-05-07T04:35:18;5.93;;;3.45;;
33104;SDS011;19476;51.448;6.674;2023-05-07T04:37:44;4.75;;;3.25;;
33104;SDS011;19476;51.448;6.674;2023-05-07T04:40:10;5.82;;;3.38;;
33104;SDS011;19476;51.448;6.674;2023-05-07T04:42:36;6.10;;;3.80;;
33104;SDS011;19476;51.448;6.674;2023-05-07T04:45:02;5.68;;;3.63;;
33104;SDS011;19476;51.448;6.674;2023-05-07T04:47:28;6.38;;;3.78;;
33104;SDS011;19476;51.448;6.674;2023-05-07T04:49:53;5.65;;;3.80;;
33104;SDS011;19476;51.448;6.674;2023-05-07T04:52:19;5.63;;;3.90;;
33104;SDS011;19476;51.448;6.674;2023-05-07T04:54:45;6.70;;;3.92;;
33104;SDS011;19476;51.448;6.674;2023-05-07T04:57:11;5.95;;;3.83;;
33104;SDS011;19476;51.448;6.674;2023-05-07T04:59:37;5.57;;;3.60;;
33104;SDS011;19476;51.448;6.674;2023-05-07T05:02:02;7.05;;;4.53;;
33104;SDS011;19476;51.448;6.674;2023-05-07T05:04:29;5.15;;;3.63;;
33104;SDS011;19476;51.448;6.674;2023-05-07T05:06:55;6.75;;;4.57;;
33104;SDS011;19476;51.448;6.674;2023-05-07T05:09:21;6.65;;;4.22;;
33104;SDS011;19476;51.448;6.674;2023-05-07T05:11:46;7.00;;;4.40;;
33104;SDS011;19476;51.448;6.674;2023-05-07T05:14:13;6.88;;;4.03;;
33104;SDS011;19476;51.448;6.674;2023-05-07T05:16:38;5.60;;;3.72;;
33104;SDS011;19476;51.448;6.674;2023-05-07T05:19:04;6.88;;;4.15;;
33104;SDS011;19476;51.448;6.674;2023-05-07T05:21:30;7.05;;;4.65;;
33104;SDS011;19476;51.448;6.674;2023-05-07T05:23:57;8.52;;;5.03;;
33104;SDS011;19476;51.448;6.674;2023-05-07T05:26:23;7.95;;;4.32;;
33104;SDS011;19476;51.448;6.674;2023-05-07T05:28:49;7.63;;;5.07;;
33104;SDS011;19476;51.448;6.674;2023-05-07T05:31:15;7.43;;;4.85;;
33104;SDS011;19476;51.448;6.674;2023-05-07T05:33:42;8.32;;;4.93;;
33104;SDS011;19476;51.448;6.674;2023-05-07T05:36:10;7.40;;;4.72;;
33104;SDS011;19476;51.448;6.674;2023-05-07T05:38:38;8.15;;;5.00;;
33104;SDS011;19476;51.448;6.674;2023-05-07T05:41:04;7.43;;;4.82;;
33104;SDS011;19476;51.448;6.674;2023-05-07T05:43:30;7.43;;;4.78;;
33104;SDS011;19476;51.448;6.674;2023-05-07T05:45:56;8.00;;;5.18;;
33104;SDS011;19476;51.448;6.674;2023-05-07T05:48:22;8.10;;;5.53;;
33104;SDS011;19476;51.448;6.674;2023-05-07T05:50:48;6.40;;;4.32;;
33104;SDS011;19476;51.448;6.674;2023-05-07T05:53:14;6.78;;;4.50;;
33104;SDS011;19476;51.448;6.674;2023-05-07T05:55:41;7.53;;;5.43;;
33104;SDS011;19476;51.448;6.674;2023-05-07T05:58:07;6.70;;;4.95;;
33104;SDS011;19476;51.448;6.674;2023-05-07T06:00:33;7.20;;;5.35;;
33104;SDS011;19476;51.448;6.674;2023-05-07T06:02:59;6.05;;;4.10;;
33104;SDS011;19476;51.448;6.674;2023-05-07T06:05:25;6.53;;;4.32;;
33104;SDS011;19476;51.448;6.674;2023-05-07T06:07:51;6.60;;;4.32;;
33104;SDS011;19476;51.448;6.674;2023-05-07T06:10:17;6.88;;;4.80;;
33104;SDS011;19476;51.448;6.674;2023-05-07T06:12:43;6.45;;;4.70;;
33104;SDS011;19476;51.448;6.674;2023-05-07T06:15:09;6.50;;;4.55;;
33104;SDS011;19476;51.448;6.674;2023-05-07T06:17:35;5.47;;;3.67;;
33104;SDS011;19476;51.448;6.674;2023-05-07T06:20:01;6.38;;;4.00;;
33104;SDS011;19476;51.448;6.674;2023-05-07T06:22:27;6.85;;;3.95;;
33104;SDS011;19476;51.448;6.674;2023-05-07T06:24:52;5.82;;;3.40;;
33104;SDS011;19476;51.448;6.674;2023-05-07T06:27:18;5.13;;;3.10;;
33104;SDS011;19476;51.448;6.674;2023-05-07T06:29:44;5.22;;;3.08;;
33104;SDS011;19476;51.448;6.674;2023-05-07T06:32:10;6.45;;;3.25;;
33104;SDS011;19476;51.448;6.674;2023-05-07T06:34:37;4.07;;;2.50;;
33104;SDS011;19476;51.448;6.674;2023-05-07T06:37:04;5.75;;;2.50;;
33104;SDS011;19476;51.448;6.674;2023-05-07T06:39:30;5.30;;;2.70;;
33104;SDS011;19476;51.448;6.674;2023-05-07T06:41:56;4.97;;;2.78;;
33104;SDS011;19476;51.448;6.674;2023-05-07T06:44:22;4.47;;;2.78;;
33104;SDS011;19476;51.448;6.674;2023-05-07T06:46:48;4.13;;;2.80;;
33104;SDS011;19476;51.448;6.674;2023-05-07T06:49:14;4.13;;;2.55;;
33104;SDS011;19476;51.448;6.674;2023-05-07T06:51:40;5.07;;;2.22;;
33104;SDS011;19476;51.448;6.674;2023-05-07T06:54:06;3.88;;;2.40;;
33104;SDS011;19476;51.448;6.674;2023-05-07T06:56:32;3.85;;;2.15;;
33104;SDS011;19476;51.448;6.674;2023-05-07T06:58:59;4.47;;;2.35;;
33104;SDS011;19476;51.448;6.674;2023-05-07T07:01:26;4.60;;;2.50;;
33104;SDS011;19476;51.448;6.674;2023-05-07T07:03:51;4.47;;;2.53;;
33104;SDS011;19476;51.448;6.674;2023-05-07T07:06:17;4.30;;;2.47;;
33104;SDS011;19476;51.448;6.674;2023-05-07T07:08:43;4.38;;;2.40;;
33104;SDS011;19476;51.448;6.674;2023-05-07T07:11:09;3.55;;;2.38;;
33104;SDS011;19476;51.448;6.674;2023-05-07T07:13:35;3.17;;;2.13;;
33104;SDS011;19476;51.448;6.674;2023-05-07T07:16:01;3.47;;;2.13;;
33104;SDS011;19476;51.448;6.674;2023-05-07T07:18:27;3.63;;;2.20;;
33104;SDS011;19476;51.448;6.674;2023-05-07T07:20:53;3.97;;;2.20;;
33104;SDS011;19476;51.448;6.674;2023-05-07T07:23:19;4.47;;;2.25;;
33104;SDS011;19476;51.448;6.674;2023-05-07T07:25:45;3.95;;;2.38;;
33104;SDS011;19476;51.448;6.674;2023-05-07T07:28:11;2.53;;;1.65;;
33104;SDS011;19476;51.448;6.674;2023-05-07T07:30:37;2.70;;;1.73;;
33104;SDS011;19476;51.448;6.674;2023-05-07T07:33:03;3.17;;;2.00;;
33104;SDS011;19476;51.448;6.674;2023-05-07T07:35:30;2.40;;;1.45;;
33104;SDS011;19476;51.448;6.674;2023-05-07T07:37:56;4.40;;;2.15;;
33104;SDS011;19476;51.448;6.674;2023-05-07T07:40:22;4.88;;;2.17;;
33104;SDS011;19476;51.448;6.674;2023-05-07T07:42:48;3.00;;;1.50;;
33104;SDS011;19476;51.448;6.674;2023-05-07T07:45:14;2.72;;;1.63;;
33104;SDS011;19476;51.448;6.674;2023-05-07T07:47:40;2.38;;;1.70;;
33104;SDS011;19476;51.448;6.674;2023-05-07T07:50:06;2.25;;;1.70;;
33104;SDS011;19476;51.448;6.674;2023-05-07T07:52:33;3.08;;;1.30;;
33104;SDS011;19476;51.448;6.674;2023-05-07T07:54:59;2.13;;;1.20;;
33104;SDS011;19476;51.448;6.674;2023-05-07T07:57:25;2.30;;;1.48;;
33104;SDS011;19476;51.448;6.674;2023-05-07T07:59:50;3.08;;;1.48;;
33104;SDS011;19476;51.448;6.674;2023-05-07T08:02:16;3.08;;;1.70;;
33104;SDS011;19476;51.448;6.674;2023-05-07T08:04:42;2.60;;;1.65;;
33104;SDS011;19476;51.448;6.674;2023-05-07T08:07:09;2.45;;;1.40;;
33104;SDS011;19476;51.448;6.674;2023-05-07T08:09:35;2.80;;;1.60;;
33104;SDS011;19476;51.448;6.674;2023-05-07T08:12:05;2.38;;;1.60;;
33104;SDS011;19476;51.448;6.674;2023-05-07T08:14:32;2.83;;;1.88;;
33104;SDS011;19476;51.448;6.674;2023-05-07T08:16:58;3.00;;;1.48;;
33104;SDS011;19476;51.448;6.674;2023-05-07T08:19:24;3.92;;;1.63;;
33104;SDS011;19476;51.448;6.674;2023-05-07T08:21:49;3.35;;;1.88;;
33104;SDS011;19476;51.448;6.674;2023-05-07T08:24:16;3.10;;;1.75;;
33104;SDS011;19476;51.448;6.674;2023-05-07T08:26:42;2.83;;;1.85;;
33104;SDS011;19476;51.448;6.674;2023-05-07T08:29:08;3.35;;;2.00;;
33104;SDS011;19476;51.448;6.674;2023-05-07T08:31:35;2.17;;;1.45;;
33104;SDS011;19476;51.448;6.674;2023-05-07T08:34:00;3.42;;;1.80;;
33104;SDS011;19476;51.448;6.674;2023-05-07T08:36:26;5.03;;;2.35;;
33104;SDS011;19476;51.448;6.674;2023-05-07T08:38:53;3.53;;;1.70;;
33104;SDS011;19476;51.448;6.674;2023-05-07T08:41:20;2.92;;;1.77;;
33104;SDS011;19476;51.448;6.674;2023-05-07T08:43:47;2.65;;;1.80;;
33104;SDS011;19476;51.448;6.674;2023-05-07T08:46:17;3.95;;;2.30;;
33104;SDS011;19476;51.448;6.674;2023-05-07T08:48:48;3.70;;;1.77;;
33104;SDS011;19476;51.448;6.674;2023-05-07T08:51:16;3.35;;;1.98;;
33104;SDS011;19476;51.448;6.674;2023-05-07T08:53:43;2.30;;;1.67;;
33104;SDS011;19476;51.448;6.674;2023-05-07T08:56:10;2.13;;;1.48;;
33104;SDS011;19476;51.448;6.674;2023-05-07T08:58:36;4.65;;;1.90;;
33104;SDS011;19476;51.448;6.674;2023-05-07T09:01:24;4.30;;;1.83;;
33104;SDS011;19476;51.448;6.674;2023-05-07T09:03:49;2.80;;;1.50;;
33104;SDS011;19476;51.448;6.674;2023-05-07T09:06:16;2.40;;;1.60;;
33104;SDS011;19476;51.448;6.674;2023-05-07T09:08:48;2.30;;;1.40;;
33104;SDS011;19476;51.448;6.674;2023-05-07T09:11:21;2.42;;;1.42;;
33104;SDS011;19476;51.448;6.674;2023-05-07T09:16:15;2.33;;;1.40;;
33104;SDS011;19476;51.448;6.674;2023-05-07T09:18:41;2.72;;;1.60;;
33104;SDS011;19476;51.448;6.674;2023-05-07T09:21:11;1.80;;;1.17;;
33104;SDS011;19476;51.448;6.674;2023-05-07T09:23:41;2.75;;;1.42;;
33104;SDS011;19476;51.448;6.674;2023-05-07T09:26:07;2.05;;;1.00;;
33104;SDS011;19476;51.448;6.674;2023-05-07T09:28:39;1.83;;;1.05;;
33104;SDS011;19476;51.448;6.674;2023-05-07T09:33:32;2.45;;;1.20;;
33104;SDS011;19476;51.448;6.674;2023-05-07T09:35:58;1.40;;;1.05;;
33104;SDS011;19476;51.448;6.674;2023-05-07T09:38:27;1.95;;;1.33;;
33104;SDS011;19476;51.448;6.674;2023-05-07T09:43:36;0.90;;;0.73;;
33104;SDS011;19476;51.448;6.674;2023-05-07T09:46:05;1.48;;;0.90;;
33104;SDS011;19476;51.448;6.674;2023-05-07T09:48:39;1.90;;;1.10;;
33104;SDS011;19476;51.448;6.674;2023-05-07T09:51:48;1.67;;;1.10;;
33104;SDS011;19476;51.448;6.674;2023-05-07T09:53:59;1.88;;;1.23;;
33104;SDS011;19476;51.448;6.674;2023-05-07T09:56:29;3.20;;;1.20;;
33104;SDS011;19476;51.448;6.674;2023-05-07T09:58:56;2.60;;;1.08;;
33104;SDS011;19476;51.448;6.674;2023-05-07T10:01:25;1.83;;;1.27;;
33104;SDS011;19476;51.448;6.674;2023-05-07T10:03:52;1.45;;;1.10;;
33104;SDS011;19476;51.448;6.674;2023-05-07T10:06:21;1.48;;;1.10;;
33104;SDS011;19476;51.448;6.674;2023-05-07T10:08:49;1.88;;;0.95;;
33104;SDS011;19476;51.448;6.674;2023-05-07T10:11:17;2.42;;;1.05;;
33104;SDS011;19476;51.448;6.674;2023-05-07T10:13:43;2.28;;;1.20;;
33104;SDS011;19476;51.448;6.674;2023-05-07T10:16:11;1.30;;;0.90;;
33104;SDS011;19476;51.448;6.674;2023-05-07T10:18:37;2.60;;;1.20;;
33104;SDS011;19476;51.448;6.674;2023-05-07T10:21:11;2.17;;;1.08;;
33104;SDS011;19476;51.448;6.674;2023-05-07T10:23:44;2.35;;;1.05;;
33104;SDS011;19476;51.448;6.674;2023-05-07T10:26:11;2.35;;;1.27;;
33104;SDS011;19476;51.448;6.674;2023-05-07T10:28:40;1.77;;;1.20;;
33104;SDS011;19476;51.448;6.674;2023-05-07T10:33:53;1.92;;;1.00;;
33104;SDS011;19476;51.448;6.674;2023-05-07T10:36:21;2.33;;;0.95;;
33104;SDS011;19476;51.448;6.674;2023-05-07T10:38:48;2.88;;;1.23;;
33104;SDS011;19476;51.448;6.674;2023-05-07T10:41:16;1.83;;;1.02;;
33104;SDS011;19476;51.448;6.674;2023-05-07T10:43:44;1.50;;;1.15;;
33104;SDS011;19476;51.448;6.674;2023-05-07T10:46:19;2.33;;;1.25;;
33104;SDS011;19476;51.448;6.674;2023-05-07T10:51:29;2.97;;;1.00;;
33104;SDS011;19476;51.448;6.674;2023-05-07T10:56:41;2.60;;;1.20;;
33104;SDS011;19476;51.448;6.674;2023-05-07T11:01:55;1.70;;;1.00;;
33104;SDS011;19476;51.448;6.674;2023-05-07T11:04:27;2.72;;;1.40;;
33104;SDS011;19476;51.448;6.674;2023-05-07T11:15:33;1.52;;;1.02;;
33104;SDS011;19476;51.448;6.674;2023-05-07T11:18:04;1.95;;;1.02;;
33104;SDS011;19476;51.448;6.674;2023-05-07T11:20:47;2.03;;;1.08;;
33104;SDS011;19476;51.448;6.674;2023-05-07T11:26:03;1.75;;;0.90;;
33104;SDS011;19476;51.448;6.674;2023-05-07T11:28:30;2.42;;;1.20;;
33104;SDS011;19476;51.448;6.674;2023-05-07T11:30:56;1.35;;;1.00;;
33104;SDS011;19476;51.448;6.674;2023-05-07T11:33:23;2.83;;;1.35;;
33104;SDS011;19476;51.448;6.674;2023-05-07T11:35:53;2.63;;;1.52;;
33104;SDS011;19476;51.448;6.674;2023-05-07T11:38:19;2.78;;;1.50;;
33104;SDS011;19476;51.448;6.674;2023-05-07T11:40:51;1.77;;;1.13;;
33104;SDS011;19476;51.448;6.674;2023-05-07T11:43:18;1.88;;;1.20;;
33104;SDS011;19476;51.448;6.674;2023-05-07T11:45:47;2.17;;;1.40;;
33104;SDS011;19476;51.448;6.674;2023-05-07T11:48:14;4.82;;;1.30;;
33104;SDS011;19476;51.448;6.674;2023-05-07T11:50:50;3.17;;;1.05;;
33104;SDS011;19476;51.448;6.674;2023-05-07T11:53:25;2.33;;;1.23;;
33104;SDS011;19476;51.448;6.674;2023-05-07T11:55:53;1.85;;;1.00;;
33104;SDS011;19476;51.448;6.674;2023-05-07T11:58:21;1.98;;;0.90;;
33104;SDS011;19476;51.448;6.674;2023-05-07T12:00:50;1.92;;;1.30;;
33104;SDS011;19476;51.448;6.674;2023-05-07T12:03:16;2.95;;;1.05;;
33104;SDS011;19476;51.448;6.674;2023-05-07T12:05:43;3.13;;;1.17;;
33104;SDS011;19476;51.448;6.674;2023-05-07T12:08:19;1.98;;;1.00;;
33104;SDS011;19476;51.448;6.674;2023-05-07T12:10:46;2.83;;;1.48;;
33104;SDS011;19476;51.448;6.674;2023-05-07T12:13:17;2.72;;;1.45;;
33104;SDS011;19476;51.448;6.674;2023-05-07T12:15:43;1.15;;;1.00;;
33104;SDS011;19476;51.448;6.674;2023-05-07T12:18:10;1.73;;;1.20;;
33104;SDS011;19476;51.448;6.674;2023-05-07T12:20:37;2.30;;;1.20;;
33104;SDS011;19476;51.448;6.674;2023-05-07T12:23:03;1.85;;;1.15;;
33104;SDS011;19476;51.448;6.674;2023-05-07T12:25:30;1.55;;;1.00;;
33104;SDS011;19476;51.448;6.674;2023-05-07T12:27:57;2.28;;;1.38;;
33104;SDS011;19476;51.448;6.674;2023-05-07T12:30:24;3.17;;;1.38;;
33104;SDS011;19476;51.448;6.674;2023-05-07T12:32:54;1.60;;;1.30;;
33104;SDS011;19476;51.448;6.674;2023-05-07T12:37:56;2.63;;;1.63;;
33104;SDS011;19476;51.448;6.674;2023-05-07T12:40:24;2.67;;;1.48;;
33104;SDS011;19476;51.448;6.674;2023-05-07T12:43:03;2.07;;;1.40;;
33104;SDS011;19476;51.448;6.674;2023-05-07T12:45:29;2.03;;;1.30;;
33104;SDS011;19476;51.448;6.674;2023-05-07T12:47:57;2.55;;;1.60;;
33104;SDS011;19476;51.448;6.674;2023-05-07T12:50:30;3.67;;;1.52;;
33104;SDS011;19476;51.448;6.674;2023-05-07T12:52:57;2.83;;;1.77;;
33104;SDS011;19476;51.448;6.674;2023-05-07T12:55:23;2.35;;;1.60;;
33104;SDS011;19476;51.448;6.674;2023-05-07T12:57:49;2.65;;;1.33;;
33104;SDS011;19476;51.448;6.674;2023-05-07T13:00:18;2.72;;;1.63;;
33104;SDS011;19476;51.448;6.674;2023-05-07T13:03:01;2.00;;;1.30;;
33104;SDS011;19476;51.448;6.674;2023-05-07T13:05:26;1.17;;;1.00;;
33104;SDS011;19476;51.448;6.674;2023-05-07T13:07:53;2.15;;;1.17;;
33104;SDS011;19476;51.448;6.674;2023-05-07T13:10:19;2.17;;;1.40;;
33104;SDS011;19476;51.448;6.674;2023-05-07T13:12:45;2.70;;;1.40;;
33104;SDS011;19476;51.448;6.674;2023-05-07T13:15:11;1.92;;;1.17;;
33104;SDS011;19476;51.448;6.674;2023-05-07T13:17:37;2.97;;;1.58;;
33104;SDS011;19476;51.448;6.674;2023-05-07T13:20:02;4.63;;;1.67;;
33104;SDS011;19476;51.448;6.674;2023-05-07T13:22:28;4.93;;;1.90;;
33104;SDS011;19476;51.448;6.674;2023-05-07T13:24:54;2.13;;;1.45;;
33104;SDS011;19476;51.448;6.674;2023-05-07T13:27:21;2.60;;;1.60;;
33104;SDS011;19476;51.448;6.674;2023-05-07T13:29:47;2.72;;;1.65;;
33104;SDS011;19476;51.448;6.674;2023-05-07T13:32:13;2.38;;;1.70;;
33104;SDS011;19476;51.448;6.674;2023-05-07T13:34:38;2.70;;;1.70;;
33104;SDS011;19476;51.448;6.674;2023-05-07T13:37:04;2.30;;;1.65;;
33104;SDS011;19476;51.448;6.674;2023-05-07T13:39:30;2.20;;;1.55;;
33104;SDS011;19476;51.448;6.674;2023-05-07T13:41:56;2.28;;;1.58;;
33104;SDS011;19476;51.448;6.674;2023-05-07T13:44:22;3.75;;;1.90;;
33104;SDS011;19476;51.448;6.674;2023-05-07T13:46:48;3.65;;;1.73;;
33104;SDS011;19476;51.448;6.674;2023-05-07T13:49:14;2.88;;;1.75;;
33104;SDS011;19476;51.448;6.674;2023-05-07T13:51:39;2.10;;;1.40;;
33104;SDS011;19476;51.448;6.674;2023-05-07T13:54:05;4.20;;;1.60;;
33104;SDS011;19476;51.448;6.674;2023-05-07T13:56:31;2.92;;;1.52;;
33104;SDS011;19476;51.448;6.674;2023-05-07T13:58:57;2.53;;;1.60;;
33104;SDS011;19476;51.448;6.674;2023-05-07T14:01:23;3.35;;;1.42;;
33104;SDS011;19476;51.448;6.674;2023-05-07T14:03:49;3.05;;;1.45;;
33104;SDS011;19476;51.448;6.674;2023-05-07T14:06:15;2.88;;;1.95;;
33104;SDS011;19476;51.448;6.674;2023-05-07T14:08:41;4.82;;;2.67;;
33104;SDS011;19476;51.448;6.674;2023-05-07T14:11:06;2.42;;;1.52;;
33104;SDS011;19476;51.448;6.674;2023-05-07T14:13:32;4.57;;;1.83;;
33104;SDS011;19476;51.448;6.674;2023-05-07T14:15:59;3.03;;;1.58;;
33104;SDS011;19476;51.448;6.674;2023-05-07T14:18:25;2.97;;;2.00;;
33104;SDS011;19476;51.448;6.674;2023-05-07T14:20:53;3.47;;;2.40;;
33104;SDS011;19476;51.448;6.674;2023-05-07T14:23:19;3.13;;;2.05;;
33104;SDS011;19476;51.448;6.674;2023-05-07T14:25:50;2.50;;;1.70;;
33104;SDS011;19476;51.448;6.674;2023-05-07T14:28:16;4.13;;;1.90;;
33104;SDS011;19476;51.448;6.674;2023-05-07T14:30:42;3.83;;;2.30;;
33104;SDS011;19476;51.448;6.674;2023-05-07T14:33:07;3.22;;;2.20;;
33104;SDS011;19476;51.448;6.674;2023-05-07T14:35:33;3.65;;;2.13;;
33104;SDS011;19476;51.448;6.674;2023-05-07T14:37:59;3.60;;;2.05;;
33104;SDS011;19476;51.448;6.674;2023-05-07T14:40:25;5.50;;;2.40;;
33104;SDS011;19476;51.448;6.674;2023-05-07T14:42:50;4.00;;;2.42;;
33104;SDS011;19476;51.448;6.674;2023-05-07T14:45:16;4.82;;;2.72;;
33104;SDS011;19476;51.448;6.674;2023-05-07T14:47:42;7.30;;;3.60;;
33104;SDS011;19476;51.448;6.674;2023-05-07T14:50:08;6.82;;;2.67;;
33104;SDS011;19476;51.448;6.674;2023-05-07T14:52:34;4.07;;;2.75;;
33104;SDS011;19476;51.448;6.674;2023-05-07T14:55:00;5.53;;;3.00;;
33104;SDS011;19476;51.448;6.674;2023-05-07T14:57:25;4.22;;;2.58;;
33104;SDS011;19476;51.448;6.674;2023-05-07T14:59:51;3.85;;;2.53;;
33104;SDS011;19476;51.448;6.674;2023-05-07T15:02:17;3.58;;;2.10;;
33104;SDS011;19476;51.448;6.674;2023-05-07T15:04:43;4.80;;;2.80;;
33104;SDS011;19476;51.448;6.674;2023-05-07T15:07:12;4.18;;;2.70;;
33104;SDS011;19476;51.448;6.674;2023-05-07T15:09:40;4.25;;;2.30;;
33104;SDS011;19476;51.448;6.674;2023-05-07T15:12:09;3.97;;;2.20;;
33104;SDS011;19476;51.448;6.674;2023-05-07T15:14:37;4.10;;;2.10;;
33104;SDS011;19476;51.448;6.674;2023-05-07T15:17:03;6.25;;;2.83;;
33104;SDS011;19476;51.448;6.674;2023-05-07T15:19:29;4.30;;;2.58;;
33104;SDS011;19476;51.448;6.674;2023-05-07T15:21:56;3.80;;;2.50;;
33104;SDS011;19476;51.448;6.674;2023-05-07T15:24:24;4.28;;;2.40;;
33104;SDS011;19476;51.448;6.674;2023-05-07T15:26:53;4.30;;;2.28;;
33104;SDS011;19476;51.448;6.674;2023-05-07T15:29:19;4.20;;;2.33;;
33104;SDS011;19476;51.448;6.674;2023-05-07T15:31:45;3.30;;;2.10;;